sensor_id;sensor_type;location;lat;lon;timestamp;pressure;altitude;pressure_sealevel;temperature;humidity
34185;BME280;20454;48.100;11.776;2023-01-25T00:01:52;96849.66;;;1.07;100.00
34185;BME280;20454;48.100;11.776;2023-01-25T00:04:19;96852.16;;;1.09;100.00
34185;BME280;20454;48.100;11.776;2023-01-25T00:06:45;96859.28;;;1.10;100.00
34185;BME280;20454;48.100;11.776;2023-01-25T00:09:10;96855.75;;;1.09;100.00
34185;BME280;20454;48.100;11.776;2023-01-25T00:11:36;96864.56;;;1.11;100.00
34185;BME280;20454;48.100;11.776;2023-01-25T00:14:02;96859.06;;;1.11;100.00
34185;BME280;20454;48.100;11.776;2023-01-25T00:16:28;96857.78;;;1.14;100.00
34185;BME280;20454;48.100;11.776;2023-01-25T00:18:54;96854.19;;;1.13;100.00
34185;BME280;20454;48.100;11.776;2023-01-25T00:21:22;96854.66;;;1.10;100.00
34185;BME280;20454;48.100;11.776;2023-01-25T00:23:48;96845.47;;;1.05;100.00
34185;BME280;20454;48.100;11.776;2023-01-25T00:26:14;96854.75;;;1.04;100.00
34185;BME280;20454;48.100;11.776;2023-01-25T00:28:39;96852.16;;;1.09;100.00
34185;BME280;20454;48.100;11.776;2023-01-25T00:31:06;96854.75;;;1.04;100.00
34185;BME280;20454;48.100;11.776;2023-01-25T00:33:43;96859.41;;;1.03;100.00
34185;BME280;20454;48.100;11.776;2023-01-25T00:39:01;96849.28;;;1.04;100.00
34185;BME280;20454;48.100;11.776;2023-01-25T00:41:27;96850.56;;;1.01;100.00
34185;BME280;20454;48.100;11.776;2023-01-25T00:43:52;96847.38;;;1.04;100.00
34185;BME280;20454;48.100;11.776;2023-01-25T00:46:18;96842.72;;;1.05;100.00
34185;BME280;20454;48.100;11.776;2023-01-25T00:48:44;96847.38;;;1.04;100.00
34185;BME280;20454;48.100;11.776;2023-01-25T00:51:10;96852.03;;;1.04;100.00
34185;BME280;20454;48.100;11.776;2023-01-25T00:53:36;96854.44;;;1.12;100.00
34185;BME280;20454;48.100;11.776;2023-01-25T00:56:02;96850.47;;;1.08;100.00
34185;BME280;20454;48.100;11.776;2023-01-25T00:58:27;96844.84;;;1.03;100.00
34185;BME280;20454;48.100;11.776;2023-01-25T01:00:54;96846.22;;;1.12;100.00
34185;BME280;20454;48.100;11.776;2023-01-25T01:03:20;96844.84;;;1.03;100.00
34185;BME280;20454;48.100;11.776;2023-01-25T01:05:45;96847.38;;;1.04;100.00
34185;BME280;20454;48.100;11.776;2023-01-25T01:08:12;96845.47;;;1.05;100.00
34185;BME280;20454;48.100;11.776;2023-01-25T01:10:38;96854.50;;;1.05;100.00
34185;BME280;20454;48.100;11.776;2023-01-25T01:13:04;96850.56;;;1.01;100.00
34185;BME280;20454;48.100;11.776;2023-01-25T01:15:30;96863.81;;;1.04;100.00
34185;BME280;20454;48.100;11.776;2023-01-25T01:17:55;96847.38;;;1.04;100.00
34185;BME280;20454;48.100;11.776;2023-01-25T01:20:21;96851.78;;;1.05;100.00
34185;BME280;20454;48.100;11.776;2023-01-25T01:22:47;96849.41;;;1.09;100.00
34185;BME280;20454;48.100;11.776;2023-01-25T01:25:12;96843.56;;;1.05;100.00
34185;BME280;20454;48.100;11.776;2023-01-25T01:27:38;96841.88;;;1.04;100.00
34185;BME280;20454;48.100;11.776;2023-01-25T01:30:04;96839.16;;;1.04;100.00
34185;BME280;20454;48.100;11.776;2023-01-25T01:32:30;96833.06;;;1.02;100.00
34185;BME280;20454;48.100;11.776;2023-01-25T01:34:56;96839.25;;;0.98;100.00
34185;BME280;20454;48.100;11.776;2023-01-25T01:37:22;96842.59;;;1.00;100.00
34185;BME280;20454;48.100;11.776;2023-01-25T01:39:47;96844.47;;;0.99;100.00
34185;BME280;20454;48.100;11.776;2023-01-25T01:42:13;96832.00;;;1.03;100.00
34185;BME280;20454;48.100;11.776;2023-01-25T01:47:06;96841.06;;;1.04;100.00
34185;BME280;20454;48.100;11.776;2023-01-25T01:49:34;96840.22;;;1.03;100.00
34185;BME280;20454;48.100;11.776;2023-01-25T01:52:02;96836.94;;;0.95;100.00
34185;BME280;20454;48.100;11.776;2023-01-25T01:54:35;96833.59;;;0.93;100.00
34185;BME280;20454;48.100;11.776;2023-01-25T01:57:15;96840.91;;;0.99;100.00
34185;BME280;20454;48.100;11.776;2023-01-25T02:00:04;96831.47;;;0.95;100.00
34185;BME280;20454;48.100;11.776;2023-01-25T02:02:31;96836.81;;;0.90;100.00
34185;BME280;20454;48.100;11.776;2023-01-25T02:04:58;96830.50;;;0.89;100.00
34185;BME280;20454;48.100;11.776;2023-01-25T02:07:31;96842.91;;;0.92;100.00
34185;BME280;20454;48.100;11.776;2023-01-25T02:09:58;96825.88;;;0.90;100.00
34185;BME280;20454;48.100;11.776;2023-01-25T02:12:24;96836.13;;;0.94;100.00
34185;BME280;20454;48.100;11.776;2023-01-25T02:14:51;96825.63;;;0.91;100.00
34185;BME280;20454;48.100;11.776;2023-01-25T02:17:27;96833.59;;;0.93;100.00
34185;BME280;20454;48.100;11.776;2023-01-25T02:22:43;96829.78;;;0.94;100.00
34185;BME280;20454;48.100;11.776;2023-01-25T02:25:11;96824.31;;;0.94;100.00
34185;BME280;20454;48.100;11.776;2023-01-25T02:27:39;96818.03;;;0.93;100.00
34185;BME280;20454;48.100;11.776;2023-01-25T02:30:07;96819.31;;;0.91;100.00
34185;BME280;20454;48.100;11.776;2023-01-25T02:32:33;96820.97;;;0.92;100.00
34185;BME280;20454;48.100;11.776;2023-01-25T02:34:59;96825.06;;;1.01;100.00
34185;BME280;20454;48.100;11.776;2023-01-25T02:37:25;96828.72;;;0.95;100.00
34185;BME280;20454;48.100;11.776;2023-01-25T02:39:51;96820.97;;;0.92;100.00
34185;BME280;20454;48.100;11.776;2023-01-25T02:42:17;96807.13;;;0.87;100.00
34185;BME280;20454;48.100;11.776;2023-01-25T02:44:42;96814.53;;;0.86;100.00
34185;BME280;20454;48.100;11.776;2023-01-25T02:47:08;96814.75;;;0.85;100.00
34185;BME280;20454;48.100;11.776;2023-01-25T02:49:35;96811.38;;;0.83;100.00
34185;BME280;20454;48.100;11.776;2023-01-25T02:52:01;96821.44;;;0.89;100.00
34185;BME280;20454;48.100;11.776;2023-01-25T02:54:28;96803.97;;;0.90;100.00
34185;BME280;20454;48.100;11.776;2023-01-25T02:56:53;96818.03;;;0.93;100.00
34185;BME280;20454;48.100;11.776;2023-01-25T02:59:19;96809.81;;;0.93;100.00
34185;BME280;20454;48.100;11.776;2023-01-25T05:32:05;96739.75;;;0.68;100.00
34185;BME280;20454;48.100;11.776;2023-01-25T05:34:31;96736.66;;;0.64;100.00
34185;BME280;20454;48.100;11.776;2023-01-25T05:36:57;96741.91;;;0.66;100.00
34185;BME280;20454;48.100;11.776;2023-01-25T05:39:23;96742.38;;;0.63;100.00
34185;BME280;20454;48.100;11.776;2023-01-25T05:41:49;96733.16;;;0.57;100.00
34185;BME280;20454;48.100;11.776;2023-01-25T05:46:50;96737.94;;;0.62;100.00
34185;BME280;20454;48.100;11.776;2023-01-25T05:49:16;96735.19;;;0.62;100.00
34185;BME280;20454;48.100;11.776;2023-01-25T05:51:42;96738.78;;;0.62;100.00
34185;BME280;20454;48.100;11.776;2023-01-25T05:54:13;96743.13;;;0.70;100.00
34185;BME280;20454;48.100;11.776;2023-01-25T07:22:10;96666.75;;;0.62;100.00
34185;BME280;20454;48.100;11.776;2023-01-25T07:24:35;96684.88;;;0.63;100.00
34185;BME280;20454;48.100;11.776;2023-01-25T07:27:01;96683.56;;;0.65;100.00
34185;BME280;20454;48.100;11.776;2023-01-25T07:29:27;96687.16;;;0.66;100.00
34185;BME280;20454;48.100;11.776;2023-01-25T07:31:52;96677.84;;;0.67;100.00
34185;BME280;20454;48.100;11.776;2023-01-25T07:34:18;96674.53;;;0.65;100.00
34185;BME280;20454;48.100;11.776;2023-01-25T07:36:43;96676.78;;;0.68;100.00
34185;BME280;20454;48.100;11.776;2023-01-25T07:39:11;96678.94;;;0.66;100.00
34185;BME280;20454;48.100;11.776;2023-01-25T07:41:37;96684.63;;;0.64;100.00
34185;BME280;20454;48.100;11.776;2023-01-25T07:44:02;96681.44;;;0.67;100.00
34185;BME280;20454;48.100;11.776;2023-01-25T07:46:28;96679.31;;;0.69;100.00
34185;BME280;20454;48.100;11.776;2023-01-25T07:48:54;96677.16;;;0.71;100.00
34185;BME280;20454;48.100;11.776;2023-01-25T07:51:21;96680.25;;;0.75;100.00
34185;BME280;20454;48.100;11.776;2023-01-25T07:53:48;96691.22;;;0.75;100.00
34185;BME280;20454;48.100;11.776;2023-01-25T07:56:15;96690.41;;;0.74;100.00
34185;BME280;20454;48.100;11.776;2023-01-25T07:58:40;96675.06;;;0.85;100.00
34185;BME280;20454;48.100;11.776;2023-01-25T08:03:32;96680.25;;;0.75;100.00
34185;BME280;20454;48.100;11.776;2023-01-25T08:05:58;96679.19;;;0.76;100.00
34185;BME280;20454;48.100;11.776;2023-01-25T08:08:24;96677.91;;;0.78;100.00
34185;BME280;20454;48.100;11.776;2023-01-25T08:10:50;96684.22;;;0.79;100.00
34185;BME280;20454;48.100;11.776;2023-01-25T08:13:16;96683.75;;;0.82;100.00
34185;BME280;20454;48.100;11.776;2023-01-25T08:15:42;96672.41;;;0.78;100.00
34185;BME280;20454;48.100;11.776;2023-01-25T08:18:07;96672.91;;;0.75;100.00
34185;BME280;20454;48.100;11.776;2023-01-25T08:20:33;96665.06;;;0.79;100.00
34185;BME280;20454;48.100;11.776;2023-01-25T08:22:59;96676.59;;;0.81;100.00
34185;BME280;20454;48.100;11.776;2023-01-25T08:25:24;96663.09;;;0.68;100.00
34185;BME280;20454;48.100;11.776;2023-01-25T08:27:50;96669.09;;;0.76;100.00
34185;BME280;20454;48.100;11.776;2023-01-25T08:30:17;96680.25;;;0.75;100.00
34185;BME280;20454;48.100;11.776;2023-01-25T08:32:43;96674.19;;;0.73;100.00
34185;BME280;20454;48.100;11.776;2023-01-25T08:35:09;96667.28;;;0.70;100.00
34185;BME280;20454;48.100;11.776;2023-01-25T08:37:34;96677.31;;;0.76;100.00
34185;BME280;20454;48.100;11.776;2023-01-25T08:40:00;96687.78;;;0.79;100.00
34185;BME280;20454;48.100;11.776;2023-01-25T08:42:25;96673.28;;;0.79;100.00
34185;BME280;20454;48.100;11.776;2023-01-25T08:44:51;96677.69;;;0.80;100.00
34185;BME280;20454;48.100;11.776;2023-01-25T08:47:17;96664.34;;;0.83;100.00
34185;BME280;20454;48.100;11.776;2023-01-25T08:49:42;96667.09;;;0.83;100.00
34185;BME280;20454;48.100;11.776;2023-01-25T08:52:08;96666.16;;;0.89;100.00
34185;BME280;20454;48.100;11.776;2023-01-25T08:54:34;96659.59;;;0.90;100.00
34185;BME280;20454;48.100;11.776;2023-01-25T08:57:00;96663.19;;;0.91;100.00
34185;BME280;20454;48.100;11.776;2023-01-25T08:59:26;96659.84;;;0.89;100.00
34185;BME280;20454;48.100;11.776;2023-01-25T09:01:51;96656.06;;;0.90;100.00
34185;BME280;20454;48.100;11.776;2023-01-25T09:04:17;96651.41;;;1.02;100.00
34185;BME280;20454;48.100;11.776;2023-01-25T09:06:43;96647.00;;;0.89;100.00
34185;BME280;20454;48.100;11.776;2023-01-25T09:09:10;96648.50;;;0.85;100.00
34185;BME280;20454;48.100;11.776;2023-01-25T09:11:36;96638.97;;;0.76;100.00
34185;BME280;20454;48.100;11.776;2023-01-25T09:14:03;96642.63;;;0.70;100.00
34185;BME280;20454;48.100;11.776;2023-01-25T09:16:29;96642.03;;;0.68;100.00
34185;BME280;20454;48.100;11.776;2023-01-25T09:18:56;96647.53;;;0.68;100.00
34185;BME280;20454;48.100;11.776;2023-01-25T09:21:23;96633.22;;;0.66;100.00
34185;BME280;20454;48.100;11.776;2023-01-25T09:23:50;96641.56;;;0.71;100.00
34185;BME280;20454;48.100;11.776;2023-01-25T09:26:16;96635.38;;;0.76;100.00
34185;BME280;20454;48.100;11.776;2023-01-25T09:28:45;96644.59;;;0.81;100.00
34185;BME280;20454;48.100;11.776;2023-01-25T09:31:11;96647.31;;;0.81;100.00
34185;BME280;20454;48.100;11.776;2023-01-25T09:33:38;96640.84;;;0.76;100.00
34185;BME280;20454;48.100;11.776;2023-01-25T09:36:05;96648.41;;;0.80;100.00
34185;BME280;20454;48.100;11.776;2023-01-25T09:38:31;96642.06;;;0.80;100.00
34185;BME280;20454;48.100;11.776;2023-01-25T09:49:39;96633.00;;;0.79;100.00
34185;BME280;20454;48.100;11.776;2023-01-25T09:54:45;96629.59;;;0.84;100.00
34185;BME280;20454;48.100;11.776;2023-01-25T09:59:40;96628.72;;;0.72;100.00
34185;BME280;20454;48.100;11.776;2023-01-25T10:04:52;96622.50;;;0.65;100.00
34185;BME280;20454;48.100;11.776;2023-01-25T10:07:24;96621.22;;;0.67;100.00
34185;BME280;20454;48.100;11.776;2023-01-25T10:10:12;96622.41;;;0.71;100.00
34185;BME280;20454;48.100;11.776;2023-01-25T10:12:41;96607.97;;;0.64;100.00
34185;BME280;20454;48.100;11.776;2023-01-25T10:15:18;96605.00;;;0.66;100.00
34185;BME280;20454;48.100;11.776;2023-01-25T10:17:45;96603.50;;;0.70;100.00
34185;BME280;20454;48.100;11.776;2023-01-25T10:20:25;96605.97;;;0.71;100.00
34185;BME280;20454;48.100;11.776;2023-01-25T10:25:45;96586.44;;;0.68;100.00
34185;BME280;20454;48.100;11.776;2023-01-25T10:28:33;96598.97;;;0.75;100.00
34185;BME280;20454;48.100;11.776;2023-01-25T10:31:10;96593.34;;;0.70;100.00
34185;BME280;20454;48.100;11.776;2023-01-25T10:33:39;96602.28;;;0.77;100.00
34185;BME280;20454;48.100;11.776;2023-01-25T10:36:11;96588.38;;;0.79;100.00
34185;BME280;20454;48.100;11.776;2023-01-25T10:38:45;96590.63;;;0.82;100.00
34185;BME280;20454;48.100;11.776;2023-01-25T10:41:23;96589.25;;;0.91;100.00
34185;BME280;20454;48.100;11.776;2023-01-25T10:43:51;96588.41;;;0.90;100.00
34185;BME280;20454;48.100;11.776;2023-01-25T10:46:38;96578.75;;;0.88;100.00
34185;BME280;20454;48.100;11.776;2023-01-25T10:49:24;96569.00;;;0.92;100.00
34185;BME280;20454;48.100;11.776;2023-01-25T10:51:51;96562.94;;;0.90;100.00
34185;BME280;20454;48.100;11.776;2023-01-25T10:54:16;96567.56;;;1.01;100.00
34185;BME280;20454;48.100;11.776;2023-01-25T10:56:43;96562.69;;;1.03;100.00
34185;BME280;20454;48.100;11.776;2023-01-25T10:59:23;96565.78;;;0.95;100.00
34185;BME280;20454;48.100;11.776;2023-01-25T11:01:50;96547.81;;;0.87;100.00
34185;BME280;20454;48.100;11.776;2023-01-25T11:04:33;96553.63;;;0.91;100.00
34185;BME280;20454;48.100;11.776;2023-01-25T11:07:00;96544.81;;;0.89;100.00
34185;BME280;20454;48.100;11.776;2023-01-25T11:09:37;96549.25;;;0.90;100.00
34185;BME280;20454;48.100;11.776;2023-01-25T11:12:18;96527.91;;;0.92;100.00
34185;BME280;20454;48.100;11.776;2023-01-25T11:14:48;96534.94;;;0.99;100.00
34185;BME280;20454;48.100;11.776;2023-01-25T11:17:25;96536.38;;;1.02;100.00
34185;BME280;20454;48.100;11.776;2023-01-25T11:20:05;96524.22;;;0.98;100.00
34185;BME280;20454;48.100;11.776;2023-01-25T11:22:31;96521.84;;;1.01;100.00
34185;BME280;20454;48.100;11.776;2023-01-25T11:24:57;96517.44;;;1.00;100.00
34185;BME280;20454;48.100;11.776;2023-01-25T11:27:26;96513.63;;;1.01;100.00
34185;BME280;20454;48.100;11.776;2023-01-25T11:32:30;96515.75;;;0.99;100.00
34185;BME280;20454;48.100;11.776;2023-01-25T11:34:56;96504.44;;;0.96;100.00
34185;BME280;20454;48.100;11.776;2023-01-25T11:43:04;96498.00;;;1.02;100.00
34185;BME280;20454;48.100;11.776;2023-01-25T11:48:42;96476.22;;;0.95;100.00
34185;BME280;20454;48.100;11.776;2023-01-25T11:51:23;96471.22;;;0.92;100.00
34185;BME280;20454;48.100;11.776;2023-01-25T11:54:20;96470.88;;;1.00;100.00
34185;BME280;20454;48.100;11.776;2023-01-25T11:56:58;96463.47;;;1.01;100.00
34185;BME280;20454;48.100;11.776;2023-01-25T12:16:37;96428.94;;;1.11;100.00
34185;BME280;20454;48.100;11.776;2023-01-25T12:27:45;96411.78;;;1.04;100.00
34185;BME280;20454;48.100;11.776;2023-01-25T12:30:27;96413.09;;;1.02;100.00
34185;BME280;20454;48.100;11.776;2023-01-25T12:32:58;96403.72;;;0.98;100.00
34185;BME280;20454;48.100;11.776;2023-01-25T12:35:32;96396.81;;;0.95;100.00
34185;BME280;20454;48.100;11.776;2023-01-25T12:38:11;96393.22;;;0.95;100.00
34185;BME280;20454;48.100;11.776;2023-01-25T12:43:08;96389.28;;;1.02;100.00
34185;BME280;20454;48.100;11.776;2023-01-25T12:45:38;96394.03;;;1.07;100.00
34185;BME280;20454;48.100;11.776;2023-01-25T12:50:55;96382.50;;;1.05;100.00
34185;BME280;20454;48.100;11.776;2023-01-25T12:53:44;96377.06;;;0.93;100.00
34185;BME280;20454;48.100;11.776;2023-01-25T12:56:57;96381.09;;;0.91;100.00
34185;BME280;20454;48.100;11.776;2023-01-25T12:59:35;96376.69;;;0.90;100.00
34185;BME280;20454;48.100;11.776;2023-01-25T13:10:46;96365.50;;;0.80;100.00
34185;BME280;20454;48.100;11.776;2023-01-25T13:13:31;96366.09;;;0.82;100.00
34185;BME280;20454;48.100;11.776;2023-01-25T13:15:57;96367.88;;;0.88;100.00
34185;BME280;20454;48.100;11.776;2023-01-25T13:18:43;96365.63;;;0.85;100.00
34185;BME280;20454;48.100;11.776;2023-01-25T13:21:11;96369.91;;;0.81;100.00
34185;BME280;20454;48.100;11.776;2023-01-25T13:24:17;96367.63;;;0.89;100.00
34185;BME280;20454;48.100;11.776;2023-01-25T13:37:17;96355.50;;;0.85;100.00
34185;BME280;20454;48.100;11.776;2023-01-25T13:39:45;96359.31;;;0.84;100.00
34185;BME280;20454;48.100;11.776;2023-01-25T13:44:41;96356.44;;;0.79;100.00
34185;BME280;20454;48.100;11.776;2023-01-25T13:47:14;96350.88;;;0.74;100.00
34185;BME280;20454;48.100;11.776;2023-01-25T13:49:49;96350.25;;;0.72;100.00
34185;BME280;20454;48.100;11.776;2023-01-25T13:52:18;96342.44;;;0.64;100.00
34185;BME280;20454;48.100;11.776;2023-01-25T13:54:46;96339.81;;;0.69;100.00
34185;BME280;20454;48.100;11.776;2023-01-25T13:57:14;96339.81;;;0.69;100.00
34185;BME280;20454;48.100;11.776;2023-01-25T13:59:40;96339.81;;;0.69;100.00
34185;BME280;20454;48.100;11.776;2023-01-25T14:02:19;96329.81;;;0.63;100.00
34185;BME280;20454;48.100;11.776;2023-01-25T14:04:46;96334.47;;;0.63;100.00
34185;BME280;20454;48.100;11.776;2023-01-25T14:07:20;96335.28;;;0.63;100.00
34185;BME280;20454;48.100;11.776;2023-01-25T14:09:47;96330.41;;;0.65;100.00
34185;BME280;20454;48.100;11.776;2023-01-25T14:12:24;96330.16;;;0.67;100.00
34185;BME280;20454;48.100;11.776;2023-01-25T14:14:54;96329.34;;;0.66;100.00
34185;BME280;20454;48.100;11.776;2023-01-25T14:17:21;96332.19;;;0.71;100.00
34185;BME280;20454;48.100;11.776;2023-01-25T14:19:49;96333.25;;;0.70;100.00
34185;BME280;20454;48.100;11.776;2023-01-25T14:22:29;96310.53;;;0.58;100.00
34185;BME280;20454;48.100;11.776;2023-01-25T14:25:12;96328.00;;;0.69;100.00
34185;BME280;20454;48.100;11.776;2023-01-25T14:27:44;96328.63;;;0.71;100.00
34185;BME280;20454;48.100;11.776;2023-01-25T14:30:26;96325.28;;;0.69;100.00
34185;BME280;20454;48.100;11.776;2023-01-25T14:32:58;96307.91;;;0.63;100.00
34185;BME280;20454;48.100;11.776;2023-01-25T14:37:56;96315.53;;;0.73;100.00
34185;BME280;20454;48.100;11.776;2023-01-25T14:40:22;96310.28;;;0.71;100.00
34185;BME280;20454;48.100;11.776;2023-01-25T14:42:50;96313.63;;;0.73;100.00
34185;BME280;20454;48.100;11.776;2023-01-25T14:45:17;96315.53;;;0.73;100.00
34185;BME280;20454;48.100;11.776;2023-01-25T14:47:44;96298.75;;;0.69;100.00
34185;BME280;20454;48.100;11.776;2023-01-25T14:50:29;96300.19;;;0.72;100.00
34185;BME280;20454;48.100;11.776;2023-01-25T14:52:56;96291.13;;;0.71;100.00
34185;BME280;20454;48.100;11.776;2023-01-25T14:55:22;96301.59;;;0.74;100.00
34185;BME280;20454;48.100;11.776;2023-01-25T14:57:47;96292.78;;;0.72;100.00
34185;BME280;20454;48.100;11.776;2023-01-25T15:00:27;96290.31;;;0.71;100.00
34185;BME280;20454;48.100;11.776;2023-01-25T15:03:05;96297.19;;;0.73;100.00
34185;BME280;20454;48.100;11.776;2023-01-25T15:05:33;96294.47;;;0.73;100.00
34185;BME280;20454;48.100;11.776;2023-01-25T15:10:32;96286.25;;;0.73;100.00
34185;BME280;20454;48.100;11.776;2023-01-25T17:04:26;96189.13;;;0.64;100.00
34185;BME280;20454;48.100;11.776;2023-01-25T17:06:52;96201.50;;;0.67;100.00
34185;BME280;20454;48.100;11.776;2023-01-25T17:09:18;96201.63;;;0.72;100.00
34185;BME280;20454;48.100;11.776;2023-01-25T17:11:44;96195.44;;;0.65;100.00
34185;BME280;20454;48.100;11.776;2023-01-25T17:14:12;96198.44;;;0.63;100.00
34185;BME280;20454;48.100;11.776;2023-01-25T17:16:38;96191.53;;;0.61;100.00
34185;BME280;20454;48.100;11.776;2023-01-25T17:19:05;96189.28;;;0.58;100.00
34185;BME280;20454;48.100;11.776;2023-01-25T17:21:32;96180.75;;;0.54;100.00
34185;BME280;20454;48.100;11.776;2023-01-25T17:23:59;96188.44;;;0.57;100.00
34185;BME280;20454;48.100;11.776;2023-01-25T17:26:26;96166.22;;;0.54;100.00
34185;BME280;20454;48.100;11.776;2023-01-25T17:28:54;96174.19;;;0.55;100.00
34185;BME280;20454;48.100;11.776;2023-01-25T20:32:06;95989.41;;;0.53;100.00
34185;BME280;20454;48.100;11.776;2023-01-25T20:34:31;95989.41;;;0.53;100.00
34185;BME280;20454;48.100;11.776;2023-01-25T20:36:57;95991.06;;;0.54;100.00
34185;BME280;20454;48.100;11.776;2023-01-25T20:39:24;95996.81;;;0.52;100.00
34185;BME280;20454;48.100;11.776;2023-01-25T20:41:50;95991.00;;;0.49;100.00
34185;BME280;20454;48.100;11.776;2023-01-25T20:44:17;95987.75;;;0.52;100.00
34185;BME280;20454;48.100;11.776;2023-01-25T20:46:43;95987.97;;;0.50;100.00
34185;BME280;20454;48.100;11.776;2023-01-25T20:49:15;95975.72;;;0.53;100.00
34185;BME280;20454;48.100;11.776;2023-01-25T20:51:42;95982.78;;;0.49;100.00
34185;BME280;20454;48.100;11.776;2023-01-25T20:54:08;95983.94;;;0.53;100.00
34185;BME280;20454;48.100;11.776;2023-01-25T20:56:33;95980.03;;;0.49;100.00
34185;BME280;20454;48.100;11.776;2023-01-25T20:59:00;95980.53;;;0.46;100.00
34185;BME280;20454;48.100;11.776;2023-01-25T21:01:28;95969.47;;;0.41;100.00
34185;BME280;20454;48.100;11.776;2023-01-25T21:03:54;95958.22;;;0.37;100.00
34185;BME280;20454;48.100;11.776;2023-01-25T21:06:22;95961.53;;;0.39;100.00
34185;BME280;20454;48.100;11.776;2023-01-25T21:08:47;95959.56;;;0.35;100.00
34185;BME280;20454;48.100;11.776;2023-01-25T21:11:13;95954.56;;;0.32;100.00
34185;BME280;20454;48.100;11.776;2023-01-25T21:13:39;95942.38;;;0.23;100.00
34185;BME280;20454;48.100;11.776;2023-01-25T21:16:17;95957.81;;;0.29;100.00
34185;BME280;20454;48.100;11.776;2023-01-25T21:18:44;95948.44;;;0.25;100.00
34185;BME280;20454;48.100;11.776;2023-01-25T21:21:21;95955.06;;;0.29;100.00
34185;BME280;20454;48.100;11.776;2023-01-25T21:23:48;95958.88;;;0.28;100.00
34185;BME280;20454;48.100;11.776;2023-01-25T21:26:33;95949.28;;;0.25;100.00
34185;BME280;20454;48.100;11.776;2023-01-25T21:29:00;95938.00;;;0.22;100.00
34185;BME280;20454;48.100;11.776;2023-01-25T21:31:27;95944.03;;;0.24;100.00
34185;BME280;20454;48.100;11.776;2023-01-25T21:33:54;95946.53;;;0.25;100.00
34185;BME280;20454;48.100;11.776;2023-01-25T21:36:20;95932.25;;;0.23;100.00
34185;BME280;20454;48.100;11.776;2023-01-25T21:38:48;95941.88;;;0.26;100.00
34185;BME280;20454;48.100;11.776;2023-01-25T21:41:16;95938.31;;;0.25;100.00
34185;BME280;20454;48.100;11.776;2023-01-25T21:43:47;95942.47;;;0.28;100.00
34185;BME280;20454;48.100;11.776;2023-01-25T21:46:32;95935.09;;;0.28;100.00
34185;BME280;20454;48.100;11.776;2023-01-25T21:48:59;95929.13;;;0.31;100.00
34185;BME280;20454;48.100;11.776;2023-01-25T21:51:49;95925.31;;;0.32;100.00
34185;BME280;20454;48.100;11.776;2023-01-25T21:54:16;95924.97;;;0.29;100.00
34185;BME280;20454;48.100;11.776;2023-01-25T21:56:43;95918.19;;;0.31;100.00
34185;BME280;20454;48.100;11.776;2023-01-25T21:59:09;95919.84;;;0.32;100.00
34185;BME280;20454;48.100;11.776;2023-01-25T22:01:34;95921.50;;;0.33;100.00
34185;BME280;20454;48.100;11.776;2023-01-25T22:04:00;95910.78;;;0.32;100.00
34185;BME280;20454;48.100;11.776;2023-01-25T22:06:26;95908.56;;;0.29;100.00
34185;BME280;20454;48.100;11.776;2023-01-25T22:08:52;95913.44;;;0.27;100.00
34185;BME280;20454;48.100;11.776;2023-01-25T22:11:17;95918.09;;;0.26;100.00
34185;BME280;20454;48.100;11.776;2023-01-25T22:13:43;95906.59;;;0.24;100.00
34185;BME280;20454;48.100;11.776;2023-01-25T22:16:10;95898.28;;;0.19;100.00
34185;BME280;20454;48.100;11.776;2023-01-25T22:18:38;95894.97;;;0.17;100.00
34185;BME280;20454;48.100;11.776;2023-01-25T22:21:15;95891.41;;;0.17;100.00
34185;BME280;20454;48.100;11.776;2023-01-25T22:23:41;95886.50;;;0.19;100.00
34185;BME280;20454;48.100;11.776;2023-01-25T22:26:17;95896.34;;;0.20;100.00
34185;BME280;20454;48.100;11.776;2023-01-25T22:28:52;95894.72;;;0.19;100.00
34185;BME280;20454;48.100;11.776;2023-01-25T22:31:20;95874.00;;;0.06;100.00
34185;BME280;20454;48.100;11.776;2023-01-25T22:33:46;95898.03;;;0.21;100.00
34185;BME280;20454;48.100;11.776;2023-01-25T22:36:13;95875.97;;;0.11;100.00
34185;BME280;20454;48.100;11.776;2023-01-25T22:38:39;95896.69;;;0.23;100.00
34185;BME280;20454;48.100;11.776;2023-01-25T22:41:05;95897.03;;;0.27;100.00
34185;BME280;20454;48.100;11.776;2023-01-25T22:43:31;95892.63;;;0.26;100.00
34185;BME280;20454;48.100;11.776;2023-01-25T22:45:57;95894.06;;;0.28;100.00
34185;BME280;20454;48.100;11.776;2023-01-25T22:48:23;95889.41;;;0.29;100.00
34185;BME280;20454;48.100;11.776;2023-01-25T22:50:49;95883.94;;;0.29;100.00
34185;BME280;20454;48.100;11.776;2023-01-25T22:53:15;95884.19;;;0.27;100.00
34185;BME280;20454;48.100;11.776;2023-01-25T22:55:40;95874.91;;;0.28;100.00
34185;BME280;20454;48.100;11.776;2023-01-25T22:58:08;95870.28;;;0.29;100.00
34185;BME280;20454;48.100;11.776;2023-01-25T23:00:36;95861.47;;;0.27;100.00
34185;BME280;20454;48.100;11.776;2023-01-25T23:03:02;95848.88;;;0.26;100.00
34185;BME280;20454;48.100;11.776;2023-01-25T23:05:27;95841.94;;;0.18;100.00
34185;BME280;20454;48.100;11.776;2023-01-25T23:07:54;95848.38;;;0.29;100.00
34185;BME280;20454;48.100;11.776;2023-01-25T23:10:20;95850.28;;;0.28;100.00
34185;BME280;20454;48.100;11.776;2023-01-25T23:12:46;95845.91;;;0.27;100.00
34185;BME280;20454;48.100;11.776;2023-01-25T23:15:11;95842.66;;;0.30;100.00
34185;BME280;20454;48.100;11.776;2023-01-25T23:17:41;95826.50;;;0.29;100.00
34185;BME280;20454;48.100;11.776;2023-01-25T23:20:25;95828.16;;;0.30;100.00
34185;BME280;20454;48.100;11.776;2023-01-25T23:22:51;95834.94;;;0.27;100.00
34185;BME280;20454;48.100;11.776;2023-01-25T23:25:17;95834.94;;;0.27;100.00
34185;BME280;20454;48.100;11.776;2023-01-25T23:27:45;95818.97;;;0.19;100.00
34185;BME280;20454;48.100;11.776;2023-01-25T23:30:11;95822.34;;;0.26;100.00